Marine Hornbill — 3FEF3 — position and weather

sailwx.info

Track history (hours):
 
Tides and Currents Weather Stations Pressure Air Temp Water Temp Dewpoint Dewpoint Depression Visibility Wind Speed Wind Dir Waves Ship Positions

Marine Hornbill

Last reported at 2018-May-21 08:06 UTC. Time now 2018-May-26 17:50 UTC.
Position N 36°46' E 034°39'.

Length 117 m; draft 5.5 m.

Type: Cargo ship. MMSI: 357869000.

Date/timePositionNaut miles runAvg speedWind from/ knotsBaromVisibWave heightAir tempDewpointWater temp
2018-May-21 08:06N 36°46' E 034°39'0 0.1
2018-May-21 08:00N 36°46' E 034°39'  
2018-May-16 14:30N 35°47' E 031°18'27710.2
2018-May-15 11:13N 37°26' E 025°56'211.3
2018-May-15 11:00N 37°28' E 025°54'511.0
2018-May-15 10:30N 37°33' E 025°53'711.2
2018-May-15 09:54N 37°40' E 025°51'12012.2
2018-May-15 00:01N 39°40' E 025°42'013.0
2018-May-15 00:00N 39°40' E 025°42'612.2
2018-May-14 23:30N 39°46' E 025°45'612.3
2018-May-14 23:00N 39°51' E 025°50'1712.1
2018-May-14 21:38N 40°01' E 026°07'  
Track history (hours):
 
Tides and Currents Weather Stations Pressure Air Temp Water Temp Dewpoint Dewpoint Depression Visibility Wind Speed Wind Dir Waves Ship Positions

Marine Hornbill

Last reported at 2018-May-21 08:06 UTC. Time now 2018-May-26 17:50 UTC.
Position N 36°46' E 034°39'.

Length 117 m; draft 5.5 m.

Type: Cargo ship. MMSI: 357869000.

Date/timePositionNaut miles runAvg speedWind from/ knotsBaromVisibWave heightAir tempDewpointWater temp
2018-May-21 08:06N 36°46' E 034°39'0 0.1
2018-May-21 08:00N 36°46' E 034°39'  
2018-May-16 14:30N 35°47' E 031°18'27710.2
2018-May-15 11:13N 37°26' E 025°56'211.3
2018-May-15 11:00N 37°28' E 025°54'511.0
2018-May-15 10:30N 37°33' E 025°53'711.2
2018-May-15 09:54N 37°40' E 025°51'12012.2
2018-May-15 00:01N 39°40' E 025°42'013.0
2018-May-15 00:00N 39°40' E 025°42'612.2
2018-May-14 23:30N 39°46' E 025°45'612.3
2018-May-14 23:00N 39°51' E 025°50'1712.1
2018-May-14 21:38N 40°01' E 026°07'  

Dump ship's entire track history